sensor_id;sensor_type;location;lat;lon;timestamp;P1;P2;P0
31330;PMS5003;34067;39.548;-76.088;2023-06-14T00:00:46;11;10;
31330;PMS5003;34067;39.548;-76.088;2023-06-14T00:03:14;11;11;
31330;PMS5003;34067;39.548;-76.088;2023-06-14T00:05:41;13;13;
31330;PMS5003;34067;39.548;-76.088;2023-06-14T00:08:10;10;10;
31330;PMS5003;34067;39.548;-76.088;2023-06-14T00:10:38;9;9;
31330;PMS5003;34067;39.548;-76.088;2023-06-14T00:13:06;9;8;
31330;PMS5003;34067;39.548;-76.088;2023-06-14T00:15:33;8;8;
31330;PMS5003;34067;39.548;-76.088;2023-06-14T00:18:02;10;10;
31330;PMS5003;34067;39.548;-76.088;2023-06-14T00:20:32;11;10;
31330;PMS5003;34067;39.548;-76.088;2023-06-14T00:23:00;11;11;
31330;PMS5003;34067;39.548;-76.088;2023-06-14T00:25:28;11;10;
31330;PMS5003;34067;39.548;-76.088;2023-06-14T00:27:56;10;10;
31330;PMS5003;34067;39.548;-76.088;2023-06-14T00:30:25;12;11;
31330;PMS5003;34067;39.548;-76.088;2023-06-14T00:32:53;9;9;
31330;PMS5003;34067;39.548;-76.088;2023-06-14T00:35:21;11;10;
31330;PMS5003;34067;39.548;-76.088;2023-06-14T00:37:49;9;9;
31330;PMS5003;34067;39.548;-76.088;2023-06-14T00:40:16;8;8;
31330;PMS5003;34067;39.548;-76.088;2023-06-14T00:42:44;12;11;
31330;PMS5003;34067;39.548;-76.088;2023-06-14T00:45:13;10;9;
31330;PMS5003;34067;39.548;-76.088;2023-06-14T00:47:41;9;9;
31330;PMS5003;34067;39.548;-76.088;2023-06-14T00:50:09;10;10;
31330;PMS5003;34067;39.548;-76.088;2023-06-14T00:52:38;10;10;
31330;PMS5003;34067;39.548;-76.088;2023-06-14T00:55:06;12;12;
31330;PMS5003;34067;39.548;-76.088;2023-06-14T00:57:34;12;11;
31330;PMS5003;34067;39.548;-76.088;2023-06-14T01:00:03;9;9;
31330;PMS5003;34067;39.548;-76.088;2023-06-14T01:02:32;11;11;
31330;PMS5003;34067;39.548;-76.088;2023-06-14T01:05:00;13;10;
31330;PMS5003;34067;39.548;-76.088;2023-06-14T01:07:29;14;13;
31330;PMS5003;34067;39.548;-76.088;2023-06-14T01:10:12;9;9;
31330;PMS5003;34067;39.548;-76.088;2023-06-14T01:12:55;12;12;
31330;PMS5003;34067;39.548;-76.088;2023-06-14T01:15:31;11;11;
31330;PMS5003;34067;39.548;-76.088;2023-06-14T01:18:01;12;11;
31330;PMS5003;34067;39.548;-76.088;2023-06-14T01:20:29;10;10;
31330;PMS5003;34067;39.548;-76.088;2023-06-14T01:22:59;14;14;
31330;PMS5003;34067;39.548;-76.088;2023-06-14T01:25:27;16;16;
31330;PMS5003;34067;39.548;-76.088;2023-06-14T01:27:57;14;12;
31330;PMS5003;34067;39.548;-76.088;2023-06-14T01:30:28;13;12;
31330;PMS5003;34067;39.548;-76.088;2023-06-14T01:32:57;10;10;
31330;PMS5003;34067;39.548;-76.088;2023-06-14T01:35:26;13;11;
31330;PMS5003;34067;39.548;-76.088;2023-06-14T01:37:54;15;14;
31330;PMS5003;34067;39.548;-76.088;2023-06-14T01:40:23;14;12;
31330;PMS5003;34067;39.548;-76.088;2023-06-14T01:42:53;15;14;
31330;PMS5003;34067;39.548;-76.088;2023-06-14T01:45:21;12;10;
31330;PMS5003;34067;39.548;-76.088;2023-06-14T01:47:50;15;14;
31330;PMS5003;34067;39.548;-76.088;2023-06-14T01:50:19;15;14;
31330;PMS5003;34067;39.548;-76.088;2023-06-14T01:52:47;16;14;
31330;PMS5003;34067;39.548;-76.088;2023-06-14T01:55:15;15;12;
31330;PMS5003;34067;39.548;-76.088;2023-06-14T01:57:44;15;15;
31330;PMS5003;34067;39.548;-76.088;2023-06-14T02:00:14;16;15;
31330;PMS5003;34067;39.548;-76.088;2023-06-14T02:02:42;20;19;
31330;PMS5003;34067;39.548;-76.088;2023-06-14T02:05:10;17;16;
31330;PMS5003;34067;39.548;-76.088;2023-06-14T02:07:38;22;22;
31330;PMS5003;34067;39.548;-76.088;2023-06-14T02:10:06;14;12;
31330;PMS5003;34067;39.548;-76.088;2023-06-14T02:12:34;17;17;
31330;PMS5003;34067;39.548;-76.088;2023-06-14T02:15:02;21;20;
31330;PMS5003;34067;39.548;-76.088;2023-06-14T02:17:31;20;19;
31330;PMS5003;34067;39.548;-76.088;2023-06-14T02:19:59;16;16;
31330;PMS5003;34067;39.548;-76.088;2023-06-14T02:22:28;31;31;
31330;PMS5003;34067;39.548;-76.088;2023-06-14T02:24:55;20;18;
31330;PMS5003;34067;39.548;-76.088;2023-06-14T02:27:31;22;20;
31330;PMS5003;34067;39.548;-76.088;2023-06-14T02:29:59;24;23;
31330;PMS5003;34067;39.548;-76.088;2023-06-14T02:32:31;29;28;
31330;PMS5003;34067;39.548;-76.088;2023-06-14T02:35:00;25;25;
31330;PMS5003;34067;39.548;-76.088;2023-06-14T02:37:28;32;31;
31330;PMS5003;34067;39.548;-76.088;2023-06-14T02:39:59;35;35;
31330;PMS5003;34067;39.548;-76.088;2023-06-14T02:42:27;17;16;
31330;PMS5003;34067;39.548;-76.088;2023-06-14T02:44:59;28;27;
31330;PMS5003;34067;39.548;-76.088;2023-06-14T02:47:27;85;85;
31330;PMS5003;34067;39.548;-76.088;2023-06-14T02:49:55;46;46;
31330;PMS5003;34067;39.548;-76.088;2023-06-14T02:52:23;70;70;
31330;PMS5003;34067;39.548;-76.088;2023-06-14T02:54:50;44;44;
31330;PMS5003;34067;39.548;-76.088;2023-06-14T02:57:18;26;25;
31330;PMS5003;34067;39.548;-76.088;2023-06-14T02:59:46;31;31;
31330;PMS5003;34067;39.548;-76.088;2023-06-14T03:02:14;28;28;
31330;PMS5003;34067;39.548;-76.088;2023-06-14T03:04:42;91;89;
31330;PMS5003;34067;39.548;-76.088;2023-06-14T03:07:10;59;58;
31330;PMS5003;34067;39.548;-76.088;2023-06-14T03:09:38;19;19;
31330;PMS5003;34067;39.548;-76.088;2023-06-14T03:12:06;12;10;
31330;PMS5003;34067;39.548;-76.088;2023-06-14T03:14:35;10;10;
31330;PMS5003;34067;39.548;-76.088;2023-06-14T03:17:03;10;9;
31330;PMS5003;34067;39.548;-76.088;2023-06-14T03:19:30;11;10;
31330;PMS5003;34067;39.548;-76.088;2023-06-14T03:21:58;15;14;
31330;PMS5003;34067;39.548;-76.088;2023-06-14T03:24:26;25;23;
31330;PMS5003;34067;39.548;-76.088;2023-06-14T03:26:54;15;15;
31330;PMS5003;34067;39.548;-76.088;2023-06-14T03:29:23;22;20;
31330;PMS5003;34067;39.548;-76.088;2023-06-14T03:31:58;11;10;
31330;PMS5003;34067;39.548;-76.088;2023-06-14T03:34:27;9;9;
31330;PMS5003;34067;39.548;-76.088;2023-06-14T03:36:55;10;9;
31330;PMS5003;34067;39.548;-76.088;2023-06-14T03:39:23;10;9;
31330;PMS5003;34067;39.548;-76.088;2023-06-14T03:41:51;13;12;
31330;PMS5003;34067;39.548;-76.088;2023-06-14T03:44:19;10;10;
31330;PMS5003;34067;39.548;-76.088;2023-06-14T03:46:48;12;11;
31330;PMS5003;34067;39.548;-76.088;2023-06-14T03:49:15;10;9;
31330;PMS5003;34067;39.548;-76.088;2023-06-14T03:51:43;9;9;
31330;PMS5003;34067;39.548;-76.088;2023-06-14T03:54:11;9;8;
31330;PMS5003;34067;39.548;-76.088;2023-06-14T03:56:39;10;10;
31330;PMS5003;34067;39.548;-76.088;2023-06-14T03:59:07;12;12;
31330;PMS5003;34067;39.548;-76.088;2023-06-14T04:01:34;11;11;
31330;PMS5003;34067;39.548;-76.088;2023-06-14T04:04:02;10;9;
31330;PMS5003;34067;39.548;-76.088;2023-06-14T04:06:30;11;9;
31330;PMS5003;34067;39.548;-76.088;2023-06-14T04:08:58;11;11;
31330;PMS5003;34067;39.548;-76.088;2023-06-14T04:11:27;10;9;
31330;PMS5003;34067;39.548;-76.088;2023-06-14T04:13:55;10;10;
31330;PMS5003;34067;39.548;-76.088;2023-06-14T04:16:23;10;9;
31330;PMS5003;34067;39.548;-76.088;2023-06-14T04:18:50;12;11;
31330;PMS5003;34067;39.548;-76.088;2023-06-14T04:21:18;10;9;
31330;PMS5003;34067;39.548;-76.088;2023-06-14T04:23:46;10;9;
31330;PMS5003;34067;39.548;-76.088;2023-06-14T04:26:15;12;10;
31330;PMS5003;34067;39.548;-76.088;2023-06-14T04:28:43;10;10;
31330;PMS5003;34067;39.548;-76.088;2023-06-14T04:31:11;10;9;
31330;PMS5003;34067;39.548;-76.088;2023-06-14T04:33:39;11;11;
31330;PMS5003;34067;39.548;-76.088;2023-06-14T04:36:07;11;11;
31330;PMS5003;34067;39.548;-76.088;2023-06-14T04:38:35;9;8;
31330;PMS5003;34067;39.548;-76.088;2023-06-14T04:41:03;12;11;
31330;PMS5003;34067;39.548;-76.088;2023-06-14T04:43:31;11;10;
31330;PMS5003;34067;39.548;-76.088;2023-06-14T04:45:59;9;9;
31330;PMS5003;34067;39.548;-76.088;2023-06-14T04:48:27;15;13;
31330;PMS5003;34067;39.548;-76.088;2023-06-14T04:50:55;12;12;
31330;PMS5003;34067;39.548;-76.088;2023-06-14T04:53:23;14;14;
31330;PMS5003;34067;39.548;-76.088;2023-06-14T04:55:52;10;10;
31330;PMS5003;34067;39.548;-76.088;2023-06-14T04:58:19;10;10;
31330;PMS5003;34067;39.548;-76.088;2023-06-14T05:03:09;11;10;
31330;PMS5003;34067;39.548;-76.088;2023-06-14T05:05:37;13;11;
31330;PMS5003;34067;39.548;-76.088;2023-06-14T05:08:05;12;11;
31330;PMS5003;34067;39.548;-76.088;2023-06-14T05:10:33;12;11;
31330;PMS5003;34067;39.548;-76.088;2023-06-14T05:13:01;10;10;
31330;PMS5003;34067;39.548;-76.088;2023-06-14T05:15:29;11;11;
31330;PMS5003;34067;39.548;-76.088;2023-06-14T05:17:56;11;10;
31330;PMS5003;34067;39.548;-76.088;2023-06-14T05:20:24;12;11;
31330;PMS5003;34067;39.548;-76.088;2023-06-14T05:22:52;10;10;
31330;PMS5003;34067;39.548;-76.088;2023-06-14T05:25:20;11;11;
31330;PMS5003;34067;39.548;-76.088;2023-06-14T05:27:48;11;11;
31330;PMS5003;34067;39.548;-76.088;2023-06-14T05:30:16;10;10;
31330;PMS5003;34067;39.548;-76.088;2023-06-14T05:32:44;11;10;
31330;PMS5003;34067;39.548;-76.088;2023-06-14T05:35:12;9;9;
31330;PMS5003;34067;39.548;-76.088;2023-06-14T05:37:40;11;10;
31330;PMS5003;34067;39.548;-76.088;2023-06-14T05:40:08;11;10;
31330;PMS5003;34067;39.548;-76.088;2023-06-14T05:42:36;15;13;
31330;PMS5003;34067;39.548;-76.088;2023-06-14T05:45:04;10;9;
31330;PMS5003;34067;39.548;-76.088;2023-06-14T05:47:33;12;12;
31330;PMS5003;34067;39.548;-76.088;2023-06-14T05:50:01;11;11;
31330;PMS5003;34067;39.548;-76.088;2023-06-14T05:52:29;10;8;
31330;PMS5003;34067;39.548;-76.088;2023-06-14T05:54:56;12;10;
31330;PMS5003;34067;39.548;-76.088;2023-06-14T05:57:24;13;12;
31330;PMS5003;34067;39.548;-76.088;2023-06-14T05:59:52;9;8;
31330;PMS5003;34067;39.548;-76.088;2023-06-14T06:02:19;10;10;
31330;PMS5003;34067;39.548;-76.088;2023-06-14T06:04:47;14;12;
31330;PMS5003;34067;39.548;-76.088;2023-06-14T06:07:14;12;12;
31330;PMS5003;34067;39.548;-76.088;2023-06-14T06:09:42;12;12;
31330;PMS5003;34067;39.548;-76.088;2023-06-14T06:12:10;9;8;
31330;PMS5003;34067;39.548;-76.088;2023-06-14T06:14:38;9;9;
31330;PMS5003;34067;39.548;-76.088;2023-06-14T06:17:06;13;12;
31330;PMS5003;34067;39.548;-76.088;2023-06-14T06:19:34;10;9;
31330;PMS5003;34067;39.548;-76.088;2023-06-14T06:22:02;11;9;
31330;PMS5003;34067;39.548;-76.088;2023-06-14T06:24:30;12;11;
31330;PMS5003;34067;39.548;-76.088;2023-06-14T06:26:57;14;12;
31330;PMS5003;34067;39.548;-76.088;2023-06-14T06:29:25;10;9;
31330;PMS5003;34067;39.548;-76.088;2023-06-14T06:31:53;10;10;
31330;PMS5003;34067;39.548;-76.088;2023-06-14T06:34:21;11;11;
31330;PMS5003;34067;39.548;-76.088;2023-06-14T06:36:50;12;12;
31330;PMS5003;34067;39.548;-76.088;2023-06-14T06:39:18;10;10;
31330;PMS5003;34067;39.548;-76.088;2023-06-14T06:41:46;16;14;
31330;PMS5003;34067;39.548;-76.088;2023-06-14T06:44:14;11;10;
31330;PMS5003;34067;39.548;-76.088;2023-06-14T06:46:43;13;11;
31330;PMS5003;34067;39.548;-76.088;2023-06-14T06:49:10;13;11;
31330;PMS5003;34067;39.548;-76.088;2023-06-14T06:51:40;11;10;
31330;PMS5003;34067;39.548;-76.088;2023-06-14T06:54:08;11;10;
31330;PMS5003;34067;39.548;-76.088;2023-06-14T06:56:37;10;9;
31330;PMS5003;34067;39.548;-76.088;2023-06-14T06:59:05;10;10;
31330;PMS5003;34067;39.548;-76.088;2023-06-14T07:01:33;14;12;
31330;PMS5003;34067;39.548;-76.088;2023-06-14T07:04:00;17;15;
31330;PMS5003;34067;39.548;-76.088;2023-06-14T07:06:28;14;12;
31330;PMS5003;34067;39.548;-76.088;2023-06-14T07:08:56;13;12;
31330;PMS5003;34067;39.548;-76.088;2023-06-14T07:11:24;13;11;
31330;PMS5003;34067;39.548;-76.088;2023-06-14T07:13:52;13;13;
31330;PMS5003;34067;39.548;-76.088;2023-06-14T07:16:20;13;11;
31330;PMS5003;34067;39.548;-76.088;2023-06-14T07:18:48;11;10;
31330;PMS5003;34067;39.548;-76.088;2023-06-14T07:21:16;12;11;
31330;PMS5003;34067;39.548;-76.088;2023-06-14T07:23:44;9;9;
31330;PMS5003;34067;39.548;-76.088;2023-06-14T07:26:12;13;12;
31330;PMS5003;34067;39.548;-76.088;2023-06-14T07:28:39;12;11;
31330;PMS5003;34067;39.548;-76.088;2023-06-14T07:31:07;13;12;
31330;PMS5003;34067;39.548;-76.088;2023-06-14T07:33:35;13;13;
31330;PMS5003;34067;39.548;-76.088;2023-06-14T07:36:03;15;13;
31330;PMS5003;34067;39.548;-76.088;2023-06-14T07:38:31;13;10;
31330;PMS5003;34067;39.548;-76.088;2023-06-14T07:40:59;14;13;
31330;PMS5003;34067;39.548;-76.088;2023-06-14T07:43:27;15;14;
31330;PMS5003;34067;39.548;-76.088;2023-06-14T07:45:55;14;13;
31330;PMS5003;34067;39.548;-76.088;2023-06-14T07:48:22;11;10;
31330;PMS5003;34067;39.548;-76.088;2023-06-14T07:50:50;12;12;
31330;PMS5003;34067;39.548;-76.088;2023-06-14T07:53:18;11;11;
31330;PMS5003;34067;39.548;-76.088;2023-06-14T07:55:46;11;11;
31330;PMS5003;34067;39.548;-76.088;2023-06-14T07:58:14;18;16;
31330;PMS5003;34067;39.548;-76.088;2023-06-14T08:00:42;12;10;
31330;PMS5003;34067;39.548;-76.088;2023-06-14T08:03:10;14;13;
31330;PMS5003;34067;39.548;-76.088;2023-06-14T08:05:38;14;12;
31330;PMS5003;34067;39.548;-76.088;2023-06-14T08:08:06;16;15;
31330;PMS5003;34067;39.548;-76.088;2023-06-14T08:10:34;16;15;
31330;PMS5003;34067;39.548;-76.088;2023-06-14T08:13:02;11;11;
31330;PMS5003;34067;39.548;-76.088;2023-06-14T08:15:30;11;10;
31330;PMS5003;34067;39.548;-76.088;2023-06-14T08:17:58;13;13;
31330;PMS5003;34067;39.548;-76.088;2023-06-14T08:20:26;13;12;
31330;PMS5003;34067;39.548;-76.088;2023-06-14T08:22:54;16;14;
31330;PMS5003;34067;39.548;-76.088;2023-06-14T08:25:22;14;13;
31330;PMS5003;34067;39.548;-76.088;2023-06-14T08:27:50;12;12;
31330;PMS5003;34067;39.548;-76.088;2023-06-14T08:30:18;14;12;
31330;PMS5003;34067;39.548;-76.088;2023-06-14T08:32:46;12;11;
31330;PMS5003;34067;39.548;-76.088;2023-06-14T08:35:14;13;12;
31330;PMS5003;34067;39.548;-76.088;2023-06-14T08:37:42;14;12;
31330;PMS5003;34067;39.548;-76.088;2023-06-14T08:40:17;13;12;
31330;PMS5003;34067;39.548;-76.088;2023-06-14T08:42:47;11;11;
31330;PMS5003;34067;39.548;-76.088;2023-06-14T08:45:18;11;10;
31330;PMS5003;34067;39.548;-76.088;2023-06-14T08:47:46;13;11;
31330;PMS5003;34067;39.548;-76.088;2023-06-14T08:50:15;13;13;
31330;PMS5003;34067;39.548;-76.088;2023-06-14T08:52:44;13;13;
31330;PMS5003;34067;39.548;-76.088;2023-06-14T08:55:15;15;12;
31330;PMS5003;34067;39.548;-76.088;2023-06-14T08:57:43;12;12;
31330;PMS5003;34067;39.548;-76.088;2023-06-14T09:00:13;14;14;
31330;PMS5003;34067;39.548;-76.088;2023-06-14T09:02:41;17;15;
31330;PMS5003;34067;39.548;-76.088;2023-06-14T09:05:09;14;13;
31330;PMS5003;34067;39.548;-76.088;2023-06-14T09:07:37;14;14;
31330;PMS5003;34067;39.548;-76.088;2023-06-14T09:10:07;14;12;
31330;PMS5003;34067;39.548;-76.088;2023-06-14T09:12:36;13;13;
31330;PMS5003;34067;39.548;-76.088;2023-06-14T09:15:04;17;16;
31330;PMS5003;34067;39.548;-76.088;2023-06-14T09:17:32;12;11;
31330;PMS5003;34067;39.548;-76.088;2023-06-14T09:20:00;11;11;
31330;PMS5003;34067;39.548;-76.088;2023-06-14T09:22:29;18;16;
31330;PMS5003;34067;39.548;-76.088;2023-06-14T09:24:57;10;9;
31330;PMS5003;34067;39.548;-76.088;2023-06-14T09:27:25;15;14;
31330;PMS5003;34067;39.548;-76.088;2023-06-14T09:29:53;12;11;
31330;PMS5003;34067;39.548;-76.088;2023-06-14T09:32:21;12;12;
31330;PMS5003;34067;39.548;-76.088;2023-06-14T09:34:49;14;12;
31330;PMS5003;34067;39.548;-76.088;2023-06-14T09:37:31;12;12;
31330;PMS5003;34067;39.548;-76.088;2023-06-14T09:39:59;14;13;
31330;PMS5003;34067;39.548;-76.088;2023-06-14T09:42:27;15;13;
31330;PMS5003;34067;39.548;-76.088;2023-06-14T09:44:55;13;13;
31330;PMS5003;34067;39.548;-76.088;2023-06-14T09:47:24;11;11;
31330;PMS5003;34067;39.548;-76.088;2023-06-14T09:49:52;13;12;
31330;PMS5003;34067;39.548;-76.088;2023-06-14T09:52:22;12;12;
31330;PMS5003;34067;39.548;-76.088;2023-06-14T09:54:49;14;14;
31330;PMS5003;34067;39.548;-76.088;2023-06-14T09:57:21;13;12;
31330;PMS5003;34067;39.548;-76.088;2023-06-14T09:59:52;11;11;
31330;PMS5003;34067;39.548;-76.088;2023-06-14T10:02:25;16;15;
31330;PMS5003;34067;39.548;-76.088;2023-06-14T10:04:57;14;13;
31330;PMS5003;34067;39.548;-76.088;2023-06-14T10:07:31;17;15;
31330;PMS5003;34067;39.548;-76.088;2023-06-14T10:10:06;10;10;
31330;PMS5003;34067;39.548;-76.088;2023-06-14T10:12:35;15;13;
31330;PMS5003;34067;39.548;-76.088;2023-06-14T10:15:04;17;15;
31330;PMS5003;34067;39.548;-76.088;2023-06-14T10:17:38;14;13;
31330;PMS5003;34067;39.548;-76.088;2023-06-14T10:20:14;16;15;
31330;PMS5003;34067;39.548;-76.088;2023-06-14T10:22:57;14;13;
31330;PMS5003;34067;39.548;-76.088;2023-06-14T10:25:31;14;12;
31330;PMS5003;34067;39.548;-76.088;2023-06-14T10:28:05;15;12;
31330;PMS5003;34067;39.548;-76.088;2023-06-14T10:31:01;13;13;
31330;PMS5003;34067;39.548;-76.088;2023-06-14T10:33:31;13;13;
31330;PMS5003;34067;39.548;-76.088;2023-06-14T10:36:10;16;15;
31330;PMS5003;34067;39.548;-76.088;2023-06-14T10:38:57;13;12;
31330;PMS5003;34067;39.548;-76.088;2023-06-14T10:41:26;14;14;
31330;PMS5003;34067;39.548;-76.088;2023-06-14T10:44:41;14;13;
31330;PMS5003;34067;39.548;-76.088;2023-06-14T10:47:19;15;15;
31330;PMS5003;34067;39.548;-76.088;2023-06-14T10:49:50;14;11;
31330;PMS5003;34067;39.548;-76.088;2023-06-14T10:52:22;16;14;
31330;PMS5003;34067;39.548;-76.088;2023-06-14T10:55:08;11;10;
31330;PMS5003;34067;39.548;-76.088;2023-06-14T10:57:38;14;12;
31330;PMS5003;34067;39.548;-76.088;2023-06-14T11:00:08;12;12;
31330;PMS5003;34067;39.548;-76.088;2023-06-14T11:02:49;13;12;
31330;PMS5003;34067;39.548;-76.088;2023-06-14T11:05:31;14;13;
31330;PMS5003;34067;39.548;-76.088;2023-06-14T11:08:21;12;12;
31330;PMS5003;34067;39.548;-76.088;2023-06-14T11:11:05;16;16;
31330;PMS5003;34067;39.548;-76.088;2023-06-14T11:13:36;16;13;
31330;PMS5003;34067;39.548;-76.088;2023-06-14T11:16:10;16;14;
31330;PMS5003;34067;39.548;-76.088;2023-06-14T11:18:39;12;12;
31330;PMS5003;34067;39.548;-76.088;2023-06-14T11:21:08;12;10;
31330;PMS5003;34067;39.548;-76.088;2023-06-14T11:23:36;14;14;
31330;PMS5003;34067;39.548;-76.088;2023-06-14T11:26:04;15;14;
31330;PMS5003;34067;39.548;-76.088;2023-06-14T11:28:39;13;13;
31330;PMS5003;34067;39.548;-76.088;2023-06-14T11:31:08;15;12;
31330;PMS5003;34067;39.548;-76.088;2023-06-14T11:33:37;16;16;
31330;PMS5003;34067;39.548;-76.088;2023-06-14T11:36:05;11;11;
31330;PMS5003;34067;39.548;-76.088;2023-06-14T11:38:35;11;10;
31330;PMS5003;34067;39.548;-76.088;2023-06-14T11:41:02;13;12;
31330;PMS5003;34067;39.548;-76.088;2023-06-14T11:43:30;14;14;
31330;PMS5003;34067;39.548;-76.088;2023-06-14T11:45:58;14;13;
31330;PMS5003;34067;39.548;-76.088;2023-06-14T11:48:35;13;13;
31330;PMS5003;34067;39.548;-76.088;2023-06-14T11:51:04;15;14;
31330;PMS5003;34067;39.548;-76.088;2023-06-14T11:53:32;12;11;
31330;PMS5003;34067;39.548;-76.088;2023-06-14T11:56:00;14;14;
31330;PMS5003;34067;39.548;-76.088;2023-06-14T11:58:29;11;11;
31330;PMS5003;34067;39.548;-76.088;2023-06-14T12:00:56;15;14;
31330;PMS5003;34067;39.548;-76.088;2023-06-14T12:03:24;12;12;
31330;PMS5003;34067;39.548;-76.088;2023-06-14T12:06:02;15;13;
31330;PMS5003;34067;39.548;-76.088;2023-06-14T12:08:32;12;11;
31330;PMS5003;34067;39.548;-76.088;2023-06-14T12:11:00;18;16;
31330;PMS5003;34067;39.548;-76.088;2023-06-14T12:13:30;14;12;
31330;PMS5003;34067;39.548;-76.088;2023-06-14T12:15:58;14;14;
31330;PMS5003;34067;39.548;-76.088;2023-06-14T12:18:32;14;14;
31330;PMS5003;34067;39.548;-76.088;2023-06-14T12:21:00;16;15;
31330;PMS5003;34067;39.548;-76.088;2023-06-14T12:23:53;13;12;
31330;PMS5003;34067;39.548;-76.088;2023-06-14T12:26:21;18;16;
31330;PMS5003;34067;39.548;-76.088;2023-06-14T12:28:51;14;13;
31330;PMS5003;34067;39.548;-76.088;2023-06-14T12:31:18;12;12;
31330;PMS5003;34067;39.548;-76.088;2023-06-14T12:33:46;15;14;
31330;PMS5003;34067;39.548;-76.088;2023-06-14T12:36:14;13;12;
31330;PMS5003;34067;39.548;-76.088;2023-06-14T12:38:42;15;13;
31330;PMS5003;34067;39.548;-76.088;2023-06-14T12:41:10;13;13;
31330;PMS5003;34067;39.548;-76.088;2023-06-14T12:43:38;14;13;
31330;PMS5003;34067;39.548;-76.088;2023-06-14T12:46:06;15;15;
31330;PMS5003;34067;39.548;-76.088;2023-06-14T12:48:33;14;13;
31330;PMS5003;34067;39.548;-76.088;2023-06-14T12:51:01;16;15;
31330;PMS5003;34067;39.548;-76.088;2023-06-14T12:53:30;11;9;
31330;PMS5003;34067;39.548;-76.088;2023-06-14T12:55:57;17;14;
31330;PMS5003;34067;39.548;-76.088;2023-06-14T12:58:25;12;11;
31330;PMS5003;34067;39.548;-76.088;2023-06-14T13:00:53;11;11;
31330;PMS5003;34067;39.548;-76.088;2023-06-14T13:03:21;9;9;
31330;PMS5003;34067;39.548;-76.088;2023-06-14T13:05:49;17;14;
31330;PMS5003;34067;39.548;-76.088;2023-06-14T13:08:17;14;12;
31330;PMS5003;34067;39.548;-76.088;2023-06-14T13:10:45;16;13;
31330;PMS5003;34067;39.548;-76.088;2023-06-14T13:13:13;11;11;
31330;PMS5003;34067;39.548;-76.088;2023-06-14T13:15:41;13;11;
31330;PMS5003;34067;39.548;-76.088;2023-06-14T13:18:09;11;11;
31330;PMS5003;34067;39.548;-76.088;2023-06-14T13:20:37;12;12;
31330;PMS5003;34067;39.548;-76.088;2023-06-14T13:23:05;12;12;
31330;PMS5003;34067;39.548;-76.088;2023-06-14T13:25:33;15;15;
31330;PMS5003;34067;39.548;-76.088;2023-06-14T13:28:03;13;13;
31330;PMS5003;34067;39.548;-76.088;2023-06-14T13:30:31;15;15;
31330;PMS5003;34067;39.548;-76.088;2023-06-14T13:33:00;11;11;
31330;PMS5003;34067;39.548;-76.088;2023-06-14T13:35:29;13;11;
31330;PMS5003;34067;39.548;-76.088;2023-06-14T13:37:56;13;12;
31330;PMS5003;34067;39.548;-76.088;2023-06-14T13:40:24;13;11;
31330;PMS5003;34067;39.548;-76.088;2023-06-14T13:42:52;16;15;
31330;PMS5003;34067;39.548;-76.088;2023-06-14T13:45:20;14;13;
31330;PMS5003;34067;39.548;-76.088;2023-06-14T13:47:48;14;12;
31330;PMS5003;34067;39.548;-76.088;2023-06-14T13:50:16;19;16;
31330;PMS5003;34067;39.548;-76.088;2023-06-14T13:52:44;13;12;
31330;PMS5003;34067;39.548;-76.088;2023-06-14T13:55:12;16;15;
31330;PMS5003;34067;39.548;-76.088;2023-06-14T13:57:40;13;12;
31330;PMS5003;34067;39.548;-76.088;2023-06-14T14:00:08;12;11;
31330;PMS5003;34067;39.548;-76.088;2023-06-14T14:02:36;12;12;
31330;PMS5003;34067;39.548;-76.088;2023-06-14T14:05:04;13;12;
31330;PMS5003;34067;39.548;-76.088;2023-06-14T14:07:33;14;12;
31330;PMS5003;34067;39.548;-76.088;2023-06-14T14:10:01;15;13;
31330;PMS5003;34067;39.548;-76.088;2023-06-14T14:12:28;13;11;
31330;PMS5003;34067;39.548;-76.088;2023-06-14T14:14:56;14;13;
31330;PMS5003;34067;39.548;-76.088;2023-06-14T14:17:24;15;13;
31330;PMS5003;34067;39.548;-76.088;2023-06-14T14:19:52;16;13;
31330;PMS5003;34067;39.548;-76.088;2023-06-14T14:22:20;12;12;
31330;PMS5003;34067;39.548;-76.088;2023-06-14T14:24:54;14;13;
31330;PMS5003;34067;39.548;-76.088;2023-06-14T14:27:22;13;13;
31330;PMS5003;34067;39.548;-76.088;2023-06-14T14:29:50;13;12;
31330;PMS5003;34067;39.548;-76.088;2023-06-14T14:32:17;15;12;
31330;PMS5003;34067;39.548;-76.088;2023-06-14T14:34:45;19;15;
31330;PMS5003;34067;39.548;-76.088;2023-06-14T14:37:13;14;14;
31330;PMS5003;34067;39.548;-76.088;2023-06-14T14:39:40;16;15;
31330;PMS5003;34067;39.548;-76.088;2023-06-14T14:42:09;13;12;
31330;PMS5003;34067;39.548;-76.088;2023-06-14T14:44:36;10;10;
31330;PMS5003;34067;39.548;-76.088;2023-06-14T14:47:05;16;13;
31330;PMS5003;34067;39.548;-76.088;2023-06-14T14:49:33;15;14;
31330;PMS5003;34067;39.548;-76.088;2023-06-14T14:52:01;12;11;
31330;PMS5003;34067;39.548;-76.088;2023-06-14T14:54:29;12;12;
31330;PMS5003;34067;39.548;-76.088;2023-06-14T14:56:57;19;14;
31330;PMS5003;34067;39.548;-76.088;2023-06-14T14:59:24;12;12;
31330;PMS5003;34067;39.548;-76.088;2023-06-14T15:01:52;10;10;
31330;PMS5003;34067;39.548;-76.088;2023-06-14T15:04:21;14;13;
31330;PMS5003;34067;39.548;-76.088;2023-06-14T15:06:48;17;14;
31330;PMS5003;34067;39.548;-76.088;2023-06-14T15:09:16;15;14;
31330;PMS5003;34067;39.548;-76.088;2023-06-14T15:11:45;14;14;
31330;PMS5003;34067;39.548;-76.088;2023-06-14T15:14:13;12;12;
31330;PMS5003;34067;39.548;-76.088;2023-06-14T15:16:41;13;12;
31330;PMS5003;34067;39.548;-76.088;2023-06-14T15:19:08;12;11;
31330;PMS5003;34067;39.548;-76.088;2023-06-14T15:21:36;19;16;
31330;PMS5003;34067;39.548;-76.088;2023-06-14T15:24:04;16;14;
31330;PMS5003;34067;39.548;-76.088;2023-06-14T15:26:33;18;18;
31330;PMS5003;34067;39.548;-76.088;2023-06-14T15:29:00;13;13;
31330;PMS5003;34067;39.548;-76.088;2023-06-14T15:31:28;14;13;
31330;PMS5003;34067;39.548;-76.088;2023-06-14T15:33:56;16;14;
31330;PMS5003;34067;39.548;-76.088;2023-06-14T15:36:24;17;16;
31330;PMS5003;34067;39.548;-76.088;2023-06-14T15:38:53;14;13;
31330;PMS5003;34067;39.548;-76.088;2023-06-14T15:41:21;14;12;
31330;PMS5003;34067;39.548;-76.088;2023-06-14T15:43:49;16;13;
31330;PMS5003;34067;39.548;-76.088;2023-06-14T15:46:18;15;13;
31330;PMS5003;34067;39.548;-76.088;2023-06-14T15:48:48;15;14;
31330;PMS5003;34067;39.548;-76.088;2023-06-14T15:51:16;18;14;
31330;PMS5003;34067;39.548;-76.088;2023-06-14T15:53:44;14;12;
31330;PMS5003;34067;39.548;-76.088;2023-06-14T15:56:11;13;13;
31330;PMS5003;34067;39.548;-76.088;2023-06-14T15:58:39;14;13;
31330;PMS5003;34067;39.548;-76.088;2023-06-14T16:01:07;17;15;
31330;PMS5003;34067;39.548;-76.088;2023-06-14T16:03:35;15;14;